Time;durP1;ratioP1;P1;durP2;ratioP2;P2;SDS_P1;SDS_P2;PMS_P1;PMS_P2;Temp;Humidity;BMP_temperature;BMP_pressure;BME280_temperature;BME280_humidity;BME280_pressure;Samples;Min_cycle;Max_cycle;Signal;HPM_P1;HPM_P2
2021/05/23 00:00:54;;;;;;;4.72;2.78;;;11.90;99.90;;;;;;5054232;28;20183;-85
2021/05/23 00:03:20;;;;;;;4.63;2.72;;;12.00;99.90;;;;;;5054002;28;20278;-85
2021/05/23 00:05:46;;;;;;;8.00;3.05;;;12.00;99.90;;;;;;5055351;28;20170;-85
2021/05/23 00:08:17;;;;;;;7.15;3.53;;;12.00;99.90;;;;;;5054347;28;20172;-85
2021/05/23 00:10:49;;;;;;;10.55;2.75;;;12.00;99.90;;;;;;5054109;28;20234;-85
2021/05/23 00:13:19;;;;;;;6.28;3.35;;;12.00;99.90;;;;;;5054975;28;20171;-84
2021/05/23 00:16:09;;;;;;;6.10;3.22;;;11.90;99.90;;;;;;5055376;28;20156;-85
2021/05/23 00:18:38;;;;;;;13.07;2.83;;;11.80;99.90;;;;;;5053885;28;20179;-85
2021/05/23 00:21:06;;;;;;;3.22;2.60;;;11.70;99.90;;;;;;5053955;28;20183;-86
2021/05/23 00:23:32;;;;;;;7.50;3.00;;;11.80;99.90;;;;;;5054595;28;20172;-85
2021/05/23 00:25:58;;;;;;;9.48;3.17;;;11.70;99.90;;;;;;5053863;28;20171;-85
2021/05/23 00:28:24;;;;;;;3.53;2.70;;;11.70;99.90;;;;;;5053773;28;20172;-85
2021/05/23 00:30:50;;;;;;;12.65;3.30;;;11.80;99.90;;;;;;5053589;28;20226;-86
2021/05/23 00:33:16;;;;;;;6.10;3.03;;;11.80;99.90;;;;;;5053404;28;20176;-85
2021/05/23 00:35:42;;;;;;;5.20;3.00;;;11.80;99.90;;;;;;5053612;28;20175;-85
2021/05/23 00:38:08;;;;;;;8.05;3.78;;;11.80;99.90;;;;;;5054846;28;20221;-85
2021/05/23 00:40:36;;;;;;;5.20;3.28;;;11.80;99.90;;;;;;5054167;28;20637;-85
2021/05/23 00:43:06;;;;;;;5.50;3.83;;;11.90;99.90;;;;;;5054428;28;20690;-86
2021/05/23 00:45:33;;;;;;;7.28;4.13;;;11.90;99.90;;;;;;5052991;28;20680;-85
2021/05/23 00:47:59;;;;;;;8.48;3.95;;;12.00;99.90;;;;;;5053260;28;20527;-85
2021/05/23 00:50:25;;;;;;;11.77;4.95;;;11.90;99.90;;;;;;5053172;28;20544;-84
2021/05/23 00:52:53;;;;;;;15.25;4.18;;;11.90;99.90;;;;;;5053158;28;20183;-86
2021/05/23 00:55:19;;;;;;;7.97;4.38;;;11.90;99.90;;;;;;5054429;28;20164;-85
2021/05/23 00:57:46;;;;;;;7.85;4.07;;;11.80;99.90;;;;;;5052969;28;20266;-85
2021/05/23 01:00:32;;;;;;;8.90;4.18;;;11.70;99.90;;;;;;5052969;28;20258;-86
2021/05/23 01:03:00;;;;;;;6.53;4.10;;;11.60;99.90;;;;;;5053672;28;20245;-85
2021/05/23 01:05:26;;;;;;;9.55;4.18;;;11.60;99.90;;;;;;5053021;28;20198;-85
2021/05/23 01:07:52;;;;;;;9.48;4.43;;;11.60;99.90;;;;;;5052991;28;20175;-87
2021/05/23 01:10:21;;;;;;;12.98;4.90;;;11.60;99.90;;;;;;5052855;28;20568;-86
2021/05/23 01:12:52;;;;;;;10.25;4.97;;;11.60;99.90;;;;;;5053946;28;20519;-86
2021/05/23 01:15:27;;;;;;;13.20;4.15;;;11.60;99.90;;;;;;5052658;28;20186;-85
2021/05/23 01:17:53;;;;;;;12.43;4.70;;;11.60;99.90;;;;;;5052903;28;20171;-85
2021/05/23 01:20:26;;;;;;;13.57;4.78;;;11.60;99.90;;;;;;5052906;28;20581;-86
2021/05/23 01:23:34;;;;;;;11.40;4.57;;;11.60;99.90;;;;;;5052783;28;20159;-87
2021/05/23 01:26:07;;;;;;;10.63;4.30;;;11.60;99.90;;;;;;5052369;28;20241;-85
2021/05/23 01:28:41;;;;;;;12.77;4.30;;;11.60;99.90;;;;;;5053904;28;20179;-84
2021/05/23 01:31:10;;;;;;;13.82;4.55;;;11.60;99.90;;;;;;5052822;28;20203;-85
2021/05/23 01:33:36;;;;;;;17.30;4.70;;;11.60;99.90;;;;;;5052511;28;20513;-85
2021/05/23 01:36:03;;;;;;;9.00;3.53;;;11.50;99.90;;;;;;5053994;28;20171;-85
2021/05/23 01:38:29;;;;;;;13.02;3.90;;;11.50;99.90;;;;;;5052438;28;20171;-85
2021/05/23 01:41:05;;;;;;;10.75;3.75;;;11.50;99.90;;;;;;5052466;28;20171;-85
2021/05/23 01:43:31;;;;;;;9.25;4.00;;;11.50;99.90;;;;;;5052099;28;20241;-85
2021/05/23 01:45:58;;;;;;;11.30;3.33;;;11.50;99.90;;;;;;5052371;28;20206;-85
2021/05/23 01:48:24;;;;;;;8.48;3.53;;;11.50;99.90;;;;;;5052432;28;20647;-85
2021/05/23 01:50:50;;;;;;;11.75;3.58;;;11.40;99.90;;;;;;5053522;28;20207;-85
2021/05/23 01:53:16;;;;;;;15.25;3.40;;;11.40;99.90;;;;;;5052473;28;20171;-86
2021/05/23 01:55:42;;;;;;;14.75;3.35;;;11.40;99.90;;;;;;5035810;28;20298;-86
2021/05/23 01:58:08;;;;;;;13.85;3.85;;;11.40;99.90;;;;;;5064975;28;20628;-86
2021/05/23 02:00:37;;;;;;;11.48;3.58;;;11.30;99.90;;;;;;5073104;28;20247;-86
2021/05/23 02:03:05;;;;;;;14.65;3.75;;;11.30;99.90;;;;;;5076883;28;20155;-85
2021/05/23 02:05:33;;;;;;;5.80;3.08;;;11.30;99.90;;;;;;5053430;28;20171;-85
2021/05/23 02:07:59;;;;;;;12.57;4.18;;;11.20;99.90;;;;;;5053485;28;20163;-85
2021/05/23 02:10:24;;;;;;;13.70;3.28;;;11.20;99.90;;;;;;5052091;28;20646;-85
2021/05/23 02:12:50;;;;;;;15.63;4.13;;;11.10;99.90;;;;;;5051838;28;20206;-84
2021/05/23 02:15:18;;;;;;;10.82;3.75;;;11.20;99.90;;;;;;5056599;28;20183;-84
2021/05/23 02:17:46;;;;;;;16.88;4.18;;;11.20;99.90;;;;;;5067683;28;20186;-87
2021/05/23 02:20:18;;;;;;;16.85;3.53;;;11.10;99.90;;;;;;5072428;28;20233;-85
2021/05/23 02:22:46;;;;;;;12.13;3.65;;;11.10;99.90;;;;;;5051455;28;20214;-84
2021/05/23 02:25:15;;;;;;;13.32;3.55;;;11.10;99.90;;;;;;5053344;28;20199;-84
2021/05/23 02:27:44;;;;;;;10.88;3.20;;;11.00;99.90;;;;;;5051948;28;20199;-84
2021/05/23 02:30:16;;;;;;;15.88;3.75;;;10.90;99.90;;;;;;5053060;28;20651;-84
2021/05/23 02:32:42;;;;;;;12.50;3.05;;;10.90;99.90;;;;;;5063537;28;20170;-85
2021/05/23 02:35:09;;;;;;;13.75;3.30;;;10.80;99.90;;;;;;5071941;28;20163;-85
2021/05/23 02:37:36;;;;;;;14.82;3.50;;;10.80;99.90;;;;;;5072926;28;20163;-84
2021/05/23 02:40:07;;;;;;;12.65;3.83;;;10.70;99.90;;;;;;5068390;28;20504;-84
2021/05/23 02:42:34;;;;;;;16.55;3.70;;;10.70;99.90;;;;;;5052590;28;20702;-85
2021/05/23 02:44:59;;;;;;;18.27;4.03;;;10.70;99.90;;;;;;5051637;28;20202;-85
2021/05/23 02:47:26;;;;;;;13.82;4.00;;;10.70;99.90;;;;;;5051841;28;20175;-86
2021/05/23 02:49:51;;;;;;;17.92;3.50;;;10.80;99.90;;;;;;5051823;28;20256;-85
2021/05/23 02:52:17;;;;;;;12.75;2.67;;;10.80;99.90;;;;;;5051453;28;20557;-85
2021/05/23 02:54:43;;;;;;;22.67;4.97;;;10.70;99.90;;;;;;5053480;28;20222;-85
2021/05/23 02:57:09;;;;;;;18.13;4.03;;;10.70;99.90;;;;;;5034969;28;20611;-85
2021/05/23 02:59:35;;;;;;;9.82;3.63;;;10.70;99.90;;;;;;5051606;28;20164;-85
2021/05/23 03:02:00;;;;;;;16.63;3.47;;;10.70;99.90;;;;;;5051623;28;20175;-84
2021/05/23 03:04:26;;;;;;;8.93;2.97;;;10.60;99.90;;;;;;5053780;28;20168;-85
2021/05/23 03:06:52;;;;;;;11.00;3.38;;;10.60;99.90;;;;;;5056519;28;20160;-84
2021/05/23 03:09:18;;;;;;;17.10;3.38;;;10.50;99.90;;;;;;5056593;28;20195;-85
2021/05/23 03:11:44;;;;;;;19.15;3.45;;;10.40;99.90;;;;;;5054962;28;20668;-86
2021/05/23 03:14:10;;;;;;;15.45;3.90;;;10.40;99.90;;;;;;5056204;28;20182;-85
2021/05/23 03:16:36;;;;;;;13.23;3.90;;;10.30;99.90;;;;;;5038094;28;20179;-85
2021/05/23 03:19:03;;;;;;;11.27;3.67;;;10.20;99.90;;;;;;5054921;28;20628;-85
2021/05/23 03:21:29;;;;;;;17.40;3.65;;;10.10;99.90;;;;;;5054634;28;20186;-84
2021/05/23 03:23:55;;;;;;;11.25;3.75;;;10.00;99.90;;;;;;5038494;28;20266;-86
2021/05/23 03:26:21;;;;;;;16.65;3.67;;;10.00;99.90;;;;;;5054754;28;20171;-85
2021/05/23 03:28:46;;;;;;;10.57;3.45;;;10.00;99.90;;;;;;5038418;28;20182;-86
2021/05/23 03:31:12;;;;;;;23.40;4.57;;;10.00;99.90;;;;;;5054707;28;20286;-84
2021/05/23 03:33:37;;;;;;;23.88;3.63;;;9.90;99.90;;;;;;5034641;28;20176;-85
2021/05/23 03:36:04;;;;;;;16.30;4.45;;;9.80;99.90;;;;;;5067989;28;20164;-85
2021/05/23 03:38:29;;;;;;;15.57;3.38;;;9.70;99.90;;;;;;5038131;28;20259;-85
2021/05/23 03:40:55;;;;;;;10.25;3.63;;;9.70;99.90;;;;;;5056064;28;20625;-85
2021/05/23 03:43:20;;;;;;;18.10;3.53;;;9.60;99.90;;;;;;5054246;28;20171;-85
2021/05/23 03:45:46;;;;;;;15.88;3.58;;;9.60;99.90;;;;;;5054966;28;20176;-85
2021/05/23 03:48:12;;;;;;;16.02;3.47;;;9.50;99.90;;;;;;5054678;28;20597;-85
2021/05/23 03:50:37;;;;;;;9.15;3.08;;;9.50;99.90;;;;;;5054501;28;20199;-85
2021/05/23 03:53:03;;;;;;;21.63;3.67;;;9.40;99.90;;;;;;5054237;28;20195;-85
2021/05/23 03:55:29;;;;;;;11.95;3.08;;;9.40;99.90;;;;;;5055759;28;20174;-84
2021/05/23 03:57:56;;;;;;;21.00;3.15;;;9.30;99.90;;;;;;5054254;28;20537;-84
2021/05/23 04:00:22;;;;;;;14.68;2.75;;;9.20;99.90;;;;;;5054184;28;20187;-85
2021/05/23 04:02:52;;;;;;;23.75;3.72;;;9.20;99.90;;;;;;5054850;28;20689;-84
2021/05/23 04:05:18;;;;;;;13.65;2.88;;;9.10;99.90;;;;;;5055539;28;20172;-84
2021/05/23 04:07:44;;;;;;;14.30;4.25;;;9.10;99.90;;;;;;5054214;28;20179;-84
2021/05/23 04:10:11;;;;;;;16.73;3.25;;;9.10;99.90;;;;;;5053995;28;20567;-85
2021/05/23 04:12:42;;;;;;;17.15;3.95;;;9.10;99.90;;;;;;5055087;28;20251;-84
2021/05/23 04:15:09;;;;;;;16.45;3.03;;;9.00;99.90;;;;;;5034756;28;20606;-84
2021/05/23 04:17:36;;;;;;;15.68;2.65;;;9.10;99.90;;;;;;5034132;28;20621;-85
2021/05/23 04:20:04;;;;;;;28.05;4.32;;;9.10;99.90;;;;;;5033909;28;20229;-85
2021/05/23 04:22:29;;;;;;;8.63;2.90;;;9.10;99.90;;;;;;5041388;28;20175;-84
2021/05/23 04:24:55;;;;;;;19.35;3.85;;;9.10;99.90;;;;;;5054694;28;20171;-84
2021/05/23 04:27:20;;;;;;;15.10;2.95;;;9.10;99.90;;;;;;5067573;28;20195;-85
2021/05/23 04:29:46;;;;;;;17.63;3.10;;;9.10;99.90;;;;;;5068487;28;20163;-84
2021/05/23 04:32:12;;;;;;;17.95;3.13;;;9.10;99.90;;;;;;5067310;28;20183;-85
2021/05/23 04:34:38;;;;;;;14.95;2.60;;;9.10;99.90;;;;;;5037208;28;20191;-84
2021/05/23 04:37:04;;;;;;;14.07;2.50;;;9.20;99.90;;;;;;5053595;28;20168;-85
2021/05/23 04:39:30;;;;;;;15.98;2.47;;;9.30;99.90;;;;;;5053429;28;20195;-85
2021/05/23 04:41:56;;;;;;;17.83;2.42;;;9.60;99.90;;;;;;5053389;28;20214;-85
2021/05/23 04:44:22;;;;;;;16.77;3.92;;;10.20;99.90;;;;;;5061471;28;20171;-84
2021/05/23 04:46:47;;;;;;;7.35;2.13;;;11.00;99.90;;;;;;5071750;28;20174;-85
2021/05/23 04:49:13;;;;;;;16.50;1.92;;;11.80;99.90;;;;;;5052836;28;20282;-85
2021/05/23 04:51:39;;;;;;;9.68;1.83;;;12.40;99.90;;;;;;5053208;28;20601;-85
2021/05/23 04:54:05;;;;;;;8.23;1.80;;;12.80;99.90;;;;;;5056486;28;20167;-84
2021/05/23 04:56:30;;;;;;;6.13;2.28;;;13.30;99.90;;;;;;5057248;28;20221;-85
2021/05/23 04:58:56;;;;;;;5.07;1.33;;;13.80;99.90;;;;;;5038943;28;20563;-85
2021/05/23 05:01:22;;;;;;;10.40;1.75;;;14.10;99.90;;;;;;5038454;28;20175;-86
2021/05/23 05:03:47;;;;;;;4.35;1.75;;;14.40;99.90;;;;;;5054066;28;20702;-85
2021/05/23 05:06:13;;;;;;;13.93;1.98;;;14.70;99.90;;;;;;5054480;28;20179;-85
2021/05/23 05:08:39;;;;;;;8.25;2.25;;;15.20;99.90;;;;;;5052833;28;20232;-85
2021/05/23 05:11:04;;;;;;;8.00;1.73;;;15.50;99.90;;;;;;5054356;28;20564;-85
2021/05/23 05:13:30;;;;;;;7.25;1.80;;;15.80;99.90;;;;;;5054120;28;20301;-85
2021/05/23 05:15:56;;;;;;;10.18;1.98;;;16.00;99.90;;;;;;5036383;28;20175;-85
2021/05/23 05:18:21;;;;;;;6.25;1.88;;;16.30;99.90;;;;;;5054156;28;20171;-85
2021/05/23 05:20:47;;;;;;;9.98;1.70;;;16.30;99.90;;;;;;5036315;28;20682;-85
2021/05/23 05:23:12;;;;;;;12.15;2.63;;;16.70;99.90;;;;;;5036121;28;20647;-86
2021/05/23 05:25:38;;;;;;;9.63;2.08;;;17.00;99.90;;;;;;5054138;28;20255;-85
2021/05/23 05:28:04;;;;;;;9.35;1.95;;;17.10;99.90;;;;;;5051763;28;20613;-84
2021/05/23 05:30:30;;;;;;;6.55;2.20;;;17.00;99.90;;;;;;5053681;28;20199;-86
2021/05/23 05:32:55;;;;;;;12.07;2.10;;;16.90;99.90;;;;;;5053635;28;20221;-85
2021/05/23 05:35:21;;;;;;;6.82;1.95;;;17.30;99.90;;;;;;5052655;28;20258;-85
2021/05/23 05:37:47;;;;;;;10.93;2.63;;;17.60;99.90;;;;;;5053580;28;20247;-87
2021/05/23 05:40:13;;;;;;;11.40;2.45;;;16.90;99.90;;;;;;5052325;28;20270;-86
2021/05/23 05:42:39;;;;;;;8.65;1.77;;;16.70;99.90;;;;;;5053780;28;20172;-86
2021/05/23 05:45:06;;;;;;;7.10;1.95;;;17.20;99.90;;;;;;5052563;28;20225;-86
2021/05/23 05:47:32;;;;;;;8.50;1.75;;;17.30;99.90;;;;;;5053769;28;20168;-85
2021/05/23 05:49:57;;;;;;;9.77;2.05;;;17.70;99.90;;;;;;5035811;28;20279;-86
2021/05/23 05:52:23;;;;;;;11.10;1.83;;;18.60;99.90;;;;;;5032562;28;20259;-84
2021/05/23 05:54:49;;;;;;;9.15;2.03;;;19.10;99.90;;;;;;5049104;28;20210;-86
2021/05/23 05:57:14;;;;;;;7.78;2.13;;;19.70;99.90;;;;;;5065485;28;20190;-86
2021/05/23 05:59:40;;;;;;;5.90;1.98;;;20.00;99.90;;;;;;5033900;28;20208;-85
2021/05/23 06:02:06;;;;;;;7.05;1.50;;;20.50;99.90;;;;;;5065681;28;20172;-85
2021/05/23 06:04:32;;;;;;;17.60;2.13;;;20.90;99.90;;;;;;5033538;28;20183;-86
2021/05/23 06:06:58;;;;;;;3.85;1.33;;;21.00;99.90;;;;;;5032384;28;20617;-86
2021/05/23 06:09:24;;;;;;;11.45;2.22;;;21.10;99.90;;;;;;5039534;28;20187;-83
2021/05/23 06:11:50;;;;;;;4.28;1.83;;;20.80;99.90;;;;;;5052052;28;20755;-84
2021/05/23 06:14:16;;;;;;;7.85;1.70;;;20.80;99.90;;;;;;5052304;28;20164;-84
2021/05/23 06:16:41;;;;;;;5.85;1.80;;;21.00;99.90;;;;;;5053593;28;20261;-84
2021/05/23 06:19:07;;;;;;;6.35;1.55;;;21.30;99.90;;;;;;5053539;28;20164;-84
2021/05/23 06:21:33;;;;;;;8.27;2.08;;;20.80;99.90;;;;;;5032889;28;20262;-85
2021/05/23 06:23:59;;;;;;;5.55;1.35;;;19.30;99.90;;;;;;5066141;28;20188;-84
2021/05/23 06:26:26;;;;;;;6.20;1.80;;;19.10;99.90;;;;;;5050362;28;20180;-84
2021/05/23 06:28:53;;;;;;;7.97;2.47;;;18.80;99.90;;;;;;5052633;28;20193;-85
2021/05/23 06:31:20;;;;;;;7.07;1.73;;;19.10;99.90;;;;;;5052328;28;20604;-85
2021/05/23 06:33:46;;;;;;;8.20;1.50;;;20.30;99.90;;;;;;5054158;28;20195;-86
2021/05/23 06:36:11;;;;;;;7.50;2.13;;;20.30;99.90;;;;;;5052572;28;20179;-82
2021/05/23 06:38:37;;;;;;;5.57;1.77;;;19.70;99.90;;;;;;5053008;28;20211;-85
2021/05/23 06:41:03;;;;;;;10.27;2.22;;;19.00;99.90;;;;;;5057786;28;20186;-86
2021/05/23 06:43:29;;;;;;;2.50;1.27;;;19.00;99.90;;;;;;5056416;28;20262;-85
2021/05/23 06:45:54;;;;;;;3.47;1.48;;;18.90;99.90;;;;;;5056231;28;20214;-85
2021/05/23 06:48:21;;;;;;;7.28;1.40;;;19.50;99.90;;;;;;5056336;28;20639;-86
2021/05/23 06:50:47;;;;;;;10.43;1.85;;;20.40;99.90;;;;;;5056435;28;20195;-74
2021/05/23 06:53:13;;;;;;;6.82;1.33;;;21.30;99.90;;;;;;5056999;28;20190;-75
2021/05/23 06:55:39;;;;;;;5.93;1.58;;;21.90;99.90;;;;;;5055533;28;20179;-75
2021/05/23 06:58:05;;;;;;;11.70;2.38;;;22.80;99.90;;;;;;5058967;28;20270;-74
2021/05/23 07:00:30;;;;;;;11.45;2.00;;;22.90;99.90;;;;;;5057920;28;20655;-75
2021/05/23 07:02:56;;;;;;;8.13;1.88;;;23.50;99.90;;;;;;5056398;28;20690;-75
2021/05/23 07:05:22;;;;;;;2.33;1.20;;;23.70;99.90;;;;;;5056746;28;20191;-74
2021/05/23 07:07:47;;;;;;;5.05;1.50;;;23.90;99.90;;;;;;5055447;28;20269;-74
2021/05/23 07:10:13;;;;;;;8.63;1.67;;;24.00;99.90;;;;;;5056191;28;20690;-75
2021/05/23 07:12:39;;;;;;;3.17;1.25;;;25.40;99.90;;;;;;5056178;28;20179;-75
2021/05/23 07:15:08;;;;;;;4.85;1.55;;;26.00;99.90;;;;;;5057769;28;20613;-75
2021/05/23 07:17:33;;;;;;;6.55;2.05;;;25.60;99.90;;;;;;5058502;28;20167;-75
2021/05/23 07:19:59;;;;;;;6.90;1.40;;;24.80;99.90;;;;;;5055546;28;20244;-75
2021/05/23 07:22:25;;;;;;;7.90;1.52;;;24.50;99.90;;;;;;5055737;28;20250;-75
2021/05/23 07:24:50;;;;;;;8.50;1.60;;;25.00;99.90;;;;;;5055772;28;20639;-75
2021/05/23 07:27:16;;;;;;;4.72;1.48;;;24.80;99.90;;;;;;5055839;28;20242;-75
2021/05/23 07:29:42;;;;;;;10.55;1.77;;;25.10;99.90;;;;;;5055704;28;20163;-76
2021/05/23 07:32:08;;;;;;;6.90;1.60;;;24.60;99.90;;;;;;5054747;28;20646;-74
2021/05/23 07:34:33;;;;;;;3.60;1.48;;;25.10;99.90;;;;;;5055944;28;20179;-75
2021/05/23 07:36:59;;;;;;;7.47;1.73;;;24.60;99.90;;;;;;5055915;28;20175;-75
2021/05/23 07:39:25;;;;;;;6.43;1.45;;;25.40;99.90;;;;;;5055732;28;20564;-75
2021/05/23 07:41:50;;;;;;;4.90;1.42;;;25.10;99.90;;;;;;5055675;28;20186;-76
2021/05/23 07:44:17;;;;;;;4.10;1.40;;;25.10;99.60;;;;;;5055491;28;20168;-75
2021/05/23 07:46:43;;;;;;;4.45;1.38;;;25.10;99.90;;;;;;5055456;28;20250;-75
2021/05/23 07:49:09;;;;;;;8.43;1.85;;;24.90;99.70;;;;;;5055435;28;20569;-75
2021/05/23 07:51:35;;;;;;;7.85;1.30;;;25.40;99.90;;;;;;5053260;28;20211;-75
2021/05/23 07:54:01;;;;;;;5.35;1.70;;;25.80;99.40;;;;;;5055648;28;20164;-75
2021/05/23 07:56:27;;;;;;;5.88;1.50;;;24.50;99.90;;;;;;5055040;28;20193;-76
2021/05/23 07:58:52;;;;;;;8.40;1.63;;;22.60;99.90;;;;;;5055645;28;20605;-75
2021/05/23 08:01:18;;;;;;;8.95;2.10;;;20.70;99.90;;;;;;5055084;28;20183;-75
2021/05/23 08:03:43;;;;;;;10.20;1.60;;;21.10;99.90;;;;;;5055456;28;20172;-75
2021/05/23 08:06:11;;;;;;;8.30;1.63;;;21.40;99.90;;;;;;5055386;28;20171;-75
2021/05/23 08:08:36;;;;;;;11.30;2.00;;;21.90;99.90;;;;;;5055007;28;20174;-75
2021/05/23 08:11:03;;;;;;;9.38;1.55;;;22.00;99.90;;;;;;5054500;28;20203;-75
2021/05/23 08:13:29;;;;;;;6.68;1.60;;;22.10;99.90;;;;;;5055096;28;20174;-75
2021/05/23 08:15:57;;;;;;;5.80;1.40;;;22.90;99.90;;;;;;5054724;28;20508;-75
2021/05/23 08:18:29;;;;;;;10.18;1.60;;;22.20;99.90;;;;;;5053982;28;20186;-75
2021/05/23 08:21:02;;;;;;;10.15;1.77;;;20.40;99.90;;;;;;5054885;28;20166;-75
2021/05/23 08:23:30;;;;;;;12.45;1.92;;;18.60;99.90;;;;;;5053513;28;20671;-74
2021/05/23 08:25:57;;;;;;;12.73;1.92;;;17.50;99.90;;;;;;5054985;28;20277;-75
2021/05/23 08:28:23;;;;;;;7.88;2.28;;;17.50;99.90;;;;;;5038418;28;20672;-75
2021/05/23 08:30:49;;;;;;;6.85;1.65;;;18.50;99.90;;;;;;5051715;28;20198;-75
2021/05/23 08:33:15;;;;;;;6.50;1.70;;;18.10;99.90;;;;;;5087230;28;20183;-74
2021/05/23 08:35:41;;;;;;;11.68;1.58;;;17.00;99.90;;;;;;5054441;28;20176;-76
2021/05/23 08:38:07;;;;;;;8.43;1.70;;;16.00;99.90;;;;;;5054576;28;20325;-75
2021/05/23 08:40:35;;;;;;;3.95;1.60;;;16.70;99.90;;;;;;5054722;28;20175;-74
2021/05/23 08:43:09;;;;;;;5.90;1.42;;;19.30;99.90;;;;;;5053204;28;20305;-75
2021/05/23 08:45:36;;;;;;;8.43;1.58;;;20.00;99.90;;;;;;5036746;28;20658;-75
2021/05/23 08:48:02;;;;;;;9.80;1.70;;;22.10;99.90;;;;;;5049068;28;20270;-75
2021/05/23 08:50:27;;;;;;;7.32;1.50;;;23.60;99.90;;;;;;5032253;28;20299;-74
2021/05/23 08:52:55;;;;;;;6.20;1.63;;;25.20;99.90;;;;;;5051646;28;20198;-75
2021/05/23 08:55:21;;;;;;;6.47;1.50;;;24.90;99.90;;;;;;5035091;28;20187;-81
2021/05/23 08:57:50;;;;;;;11.35;2.25;;;21.90;99.90;;;;;;5052663;28;20241;-86
2021/05/23 09:00:16;;;;;;;6.05;2.08;;;21.80;99.90;;;;;;5052965;28;20214;-88
2021/05/23 09:03:00;;;;;;;10.75;1.50;;;20.90;99.90;;;;;;5036194;28;20226;-88
2021/05/23 09:05:48;;;;;;;6.82;1.42;;;20.20;99.90;;;;;;5032855;28;20183;-89
2021/05/23 09:08:21;;;;;;;6.70;1.60;;;19.80;99.90;;;;;;5035355;28;20176;-88
2021/05/23 09:10:49;;;;;;;5.53;1.60;;;20.40;99.90;;;;;;5036020;28;20219;-87
2021/05/23 09:13:31;;;;;;;20.25;2.00;;;20.40;99.90;;;;;;5052572;28;20175;-88
2021/05/23 09:16:08;;;;;;;8.35;1.95;;;20.10;99.90;;;;;;5038532;28;20175;-88
2021/05/23 09:18:50;;;;;;;7.55;1.40;;;19.30;99.90;;;;;;5053728;28;20205;-89
2021/05/23 09:21:22;;;;;;;8.88;1.98;;;18.30;99.90;;;;;;5057173;28;20238;-89
2021/05/23 09:23:55;;;;;;;6.22;1.42;;;18.00;99.90;;;;;;5069560;28;20206;-87
2021/05/23 09:26:29;;;;;;;5.55;1.55;;;17.20;99.90;;;;;;5077013;28;20193;-82
2021/05/23 09:29:02;;;;;;;6.25;1.45;;;16.20;99.90;;;;;;5065146;28;20228;-80
2021/05/23 09:31:30;;;;;;;7.78;1.45;;;15.70;99.90;;;;;;5052531;28;20215;-80
2021/05/23 09:33:56;;;;;;;5.55;2.20;;;15.80;99.90;;;;;;5052535;28;20178;-79
2021/05/23 09:36:22;;;;;;;8.25;1.75;;;16.00;99.90;;;;;;5052508;28;20163;-80
2021/05/23 09:38:59;;;;;;;4.38;1.40;;;18.70;99.90;;;;;;5045849;28;20229;-81
2021/05/23 09:41:32;;;;;;;3.67;1.17;;;22.80;99.90;;;;;;5085805;28;20175;-81
2021/05/23 09:44:20;;;;;;;7.70;1.40;;;25.00;99.90;;;;;;5076788;28;20154;-82
2021/05/23 09:46:55;;;;;;;9.60;1.05;;;25.80;99.90;;;;;;5052032;28;20632;-81
2021/05/23 09:49:23;;;;;;;6.53;1.27;;;24.90;99.90;;;;;;5051814;28;20216;-81
2021/05/23 09:51:57;;;;;;;9.50;1.27;;;24.70;99.10;;;;;;5051636;28;20563;-81
2021/05/23 09:54:25;;;;;;;3.97;1.55;;;23.90;99.80;;;;;;5051752;28;20198;-78
2021/05/23 09:56:52;;;;;;;2.72;0.88;;;22.30;99.90;;;;;;5053455;28;20186;-81
2021/05/23 09:59:19;;;;;;;5.65;1.25;;;24.00;99.90;;;;;;5051893;28;20578;-81
2021/05/23 10:01:45;;;;;;;2.17;0.90;;;25.90;99.90;;;;;;5053033;28;20200;-81
2021/05/23 10:04:31;;;;;;;6.72;1.08;;;26.30;97.20;;;;;;5052067;28;20166;-80
2021/05/23 10:07:12;;;;;;;3.40;1.25;;;24.60;97.00;;;;;;5051756;28;20183;-78
2021/05/23 10:09:40;;;;;;;7.38;1.58;;;23.10;98.10;;;;;;5038631;28;20176;-78
2021/05/23 10:12:11;;;;;;;5.18;1.02;;;22.40;98.20;;;;;;5053012;28;20258;-80
2021/05/23 10:14:37;;;;;;;5.03;1.77;;;22.20;99.70;;;;;;5055723;28;20242;-80
2021/05/23 10:17:07;;;;;;;5.75;1.83;;;23.30;98.30;;;;;;5055479;28;20163;-80
2021/05/23 10:19:34;;;;;;;11.88;1.50;;;22.60;97.40;;;;;;5055389;28;20167;-80
2021/05/23 10:22:03;;;;;;;3.92;1.17;;;21.50;98.40;;;;;;5056085;28;20237;-79
2021/05/23 10:25:03;;;;;;;5.00;1.13;;;21.30;99.90;;;;;;5056714;28;20175;-80
2021/05/23 10:27:32;;;;;;;5.35;1.30;;;22.70;98.80;;;;;;5086994;28;20210;-79
2021/05/23 10:29:59;;;;;;;5.28;1.48;;;21.90;99.00;;;;;;5056628;28;20172;-79
2021/05/23 10:32:30;;;;;;;7.03;1.75;;;20.60;99.90;;;;;;5055082;28;20625;-79
2021/05/23 10:34:57;;;;;;;5.00;1.73;;;20.70;99.90;;;;;;5056902;28;20160;-79
2021/05/23 10:37:26;;;;;;;8.07;1.40;;;22.80;99.90;;;;;;5055367;28;20198;-79
2021/05/23 10:39:52;;;;;;;9.30;1.58;;;24.10;96.50;;;;;;5057000;28;20171;-79
2021/05/23 10:42:19;;;;;;;3.65;1.17;;;23.20;98.00;;;;;;5056472;28;20186;-80
2021/05/23 10:44:50;;;;;;;3.53;1.20;;;22.20;98.70;;;;;;5056618;28;20576;-79
2021/05/23 10:47:17;;;;;;;3.88;1.20;;;22.90;98.80;;;;;;5038585;28;20175;-79
2021/05/23 10:50:00;;;;;;;6.75;1.45;;;23.60;97.90;;;;;;5055394;28;20262;-81
2021/05/23 10:52:28;;;;;;;2.47;1.05;;;22.70;97.80;;;;;;5056660;28;20171;-79
2021/05/23 10:54:56;;;;;;;4.72;1.33;;;21.50;98.90;;;;;;5054642;28;20247;-80
2021/05/23 10:57:22;;;;;;;5.30;1.60;;;21.00;99.60;;;;;;5055169;28;20198;-80
2021/05/23 11:00:19;;;;;;;5.47;1.40;;;20.70;99.90;;;;;;5056350;28;20534;-80
2021/05/23 11:02:45;;;;;;;6.63;1.65;;;20.00;99.90;;;;;;5079885;28;20182;-79
2021/05/23 11:05:24;;;;;;;5.28;1.20;;;20.00;99.90;;;;;;5055428;28;20185;-80
2021/05/23 11:08:01;;;;;;;5.28;1.67;;;20.10;99.90;;;;;;5056498;28;20162;-81
2021/05/23 11:10:32;;;;;;;6.05;1.20;;;19.90;99.90;;;;;;5036313;28;20196;-80
2021/05/23 11:13:00;;;;;;;3.42;0.80;;;19.50;99.90;;;;;;5036547;28;20153;-81
2021/05/23 11:15:37;;;;;;;3.90;1.38;;;19.70;99.90;;;;;;5068272;28;20168;-81
2021/05/23 11:18:03;;;;;;;8.05;1.23;;;20.10;99.90;;;;;;5071642;28;20250;-81
2021/05/23 11:20:29;;;;;;;2.03;0.80;;;20.10;99.90;;;;;;5054972;28;20204;-81
2021/05/23 11:23:13;;;;;;;5.07;1.20;;;20.30;99.90;;;;;;5055426;28;20257;-81
2021/05/23 11:25:39;;;;;;;5.45;1.10;;;19.60;99.90;;;;;;5054807;28;20202;-80
2021/05/23 11:28:06;;;;;;;4.20;1.02;;;18.50;99.90;;;;;;5037368;28;20171;-82
2021/05/23 11:30:41;;;;;;;6.43;0.88;;;17.70;99.90;;;;;;5056195;28;20282;-82
2021/05/23 11:33:09;;;;;;;5.10;1.30;;;17.20;99.90;;;;;;5056282;28;20189;-83
2021/05/23 11:35:37;;;;;;;7.35;1.17;;;17.20;99.90;;;;;;5054568;28;20564;-80
2021/05/23 11:38:04;;;;;;;4.35;1.33;;;17.70;99.90;;;;;;5055600;28;20172;-80
2021/05/23 11:40:35;;;;;;;5.60;1.23;;;19.10;99.90;;;;;;5052183;28;20210;-80
2021/05/23 11:43:19;;;;;;;4.97;1.30;;;21.40;99.90;;;;;;5065488;28;20225;-80
2021/05/23 11:46:06;;;;;;;2.38;1.10;;;22.80;99.90;;;;;;5061308;28;20164;-79
2021/05/23 11:48:40;;;;;;;7.93;1.08;;;23.10;99.90;;;;;;5059015;28;20238;-81
2021/05/23 11:51:12;;;;;;;8.70;2.40;;;21.20;99.90;;;;;;5044976;28;20241;-80
2021/05/23 11:53:43;;;;;;;2.78;1.35;;;20.70;99.90;;;;;;5078107;28;20152;-83
2021/05/23 11:56:17;;;;;;;1.30;0.80;;;22.20;99.90;;;;;;5071346;28;20203;-81
2021/05/23 11:58:54;;;;;;;3.05;1.00;;;23.90;99.90;;;;;;5054342;28;20662;-80
2021/05/23 12:01:21;;;;;;;4.32;1.10;;;24.60;97.70;;;;;;5054390;28;20166;-81
2021/05/23 12:03:58;;;;;;;3.42;0.90;;;24.60;97.60;;;;;;5055513;28;20172;-80
2021/05/23 12:06:24;;;;;;;1.95;1.00;;;24.10;97.00;;;;;;5053995;28;20182;-80
2021/05/23 12:08:49;;;;;;;3.13;0.90;;;24.00;98.90;;;;;;5056691;28;20171;-79
2021/05/23 12:11:15;;;;;;;2.72;0.60;;;24.70;97.60;;;;;;5075734;28;20187;-80
2021/05/23 12:13:50;;;;;;;2.08;0.80;;;22.90;98.90;;;;;;5061294;28;20198;-80
2021/05/23 12:16:20;;;;;;;4.18;1.00;;;21.30;99.90;;;;;;5055149;28;20167;-80
2021/05/23 12:18:54;;;;;;;2.58;0.73;;;20.80;99.90;;;;;;5061470;28;20167;-80
2021/05/23 12:21:22;;;;;;;1.98;1.10;;;20.40;99.90;;;;;;5073554;28;20218;-79
2021/05/23 12:23:55;;;;;;;4.15;1.20;;;20.20;99.90;;;;;;5073776;28;20167;-80
2021/05/23 12:26:21;;;;;;;3.60;0.80;;;19.90;99.90;;;;;;5066254;28;20718;-80
2021/05/23 12:28:52;;;;;;;5.28;1.25;;;19.60;99.90;;;;;;5053309;28;20211;-80
2021/05/23 12:31:20;;;;;;;3.70;1.48;;;19.70;99.90;;;;;;5037096;28;20211;-80
2021/05/23 12:33:57;;;;;;;5.93;1.25;;;19.80;99.90;;;;;;5054708;28;20221;-81
2021/05/23 12:36:24;;;;;;;1.92;0.93;;;19.60;99.90;;;;;;5052997;28;20771;-79
2021/05/23 12:39:06;;;;;;;4.53;1.13;;;19.50;99.90;;;;;;5053332;28;20414;-79
2021/05/23 12:41:40;;;;;;;2.85;1.00;;;19.50;99.90;;;;;;5053374;28;20180;-79
2021/05/23 12:44:24;;;;;;;3.35;1.05;;;19.60;99.90;;;;;;5054838;28;20163;-80
2021/05/23 12:46:51;;;;;;;7.20;1.10;;;19.50;99.90;;;;;;5053533;28;20574;-80
2021/05/23 12:49:19;;;;;;;6.72;0.98;;;19.70;99.90;;;;;;5052909;28;20190;-80